createdAt,value
2022-10-17T00:01:39.162Z,6.73
2022-10-17T00:07:02.953Z,6.74
2022-10-17T00:12:28.386Z,6.73
2022-10-17T00:17:53.767Z,6.67
2022-10-17T00:23:17.904Z,6.66
2022-10-17T00:28:47.944Z,6.66
2022-10-17T00:34:12.099Z,6.67
2022-10-17T00:39:35.978Z,6.67
2022-10-17T00:45:09.280Z,6.59
2022-10-17T00:50:35.502Z,6.57
2022-10-17T00:56:04.483Z,6.54
2022-10-17T01:01:31.219Z,6.51
2022-10-17T01:06:55.989Z,6.49
2022-10-17T01:12:25.301Z,6.48
2022-10-17T01:18:03.301Z,6.38
2022-10-17T01:23:44.390Z,6.12
2022-10-17T01:29:34.588Z,5.81
2022-10-17T01:35:07.154Z,5.68
2022-10-17T01:40:38.654Z,5.71
2022-10-17T01:46:08.108Z,5.69
2022-10-17T01:51:39.154Z,5.67
2022-10-17T01:57:10.342Z,5.64
2022-10-17T02:02:35.185Z,5.67
2022-10-17T02:08:00.551Z,5.61
2022-10-17T02:13:36.317Z,5.65
2022-10-17T02:19:24.771Z,5.58
2022-10-17T02:24:55.995Z,5.59
2022-10-17T02:30:30.625Z,5.55
2022-10-17T02:35:58.044Z,5.52
2022-10-17T02:46:56.837Z,5.56
2022-10-17T02:52:28.759Z,5.57
2022-10-17T02:58:00.882Z,5.53
2022-10-17T03:03:28.272Z,5.47
2022-10-17T03:08:57.748Z,5.40
2022-10-17T03:14:23.601Z,5.38
2022-10-17T03:19:49.254Z,5.33
2022-10-17T03:25:13.694Z,5.30
2022-10-17T03:30:40.781Z,5.28
2022-10-17T03:36:09.044Z,5.30
2022-10-17T03:41:34.023Z,5.29
2022-10-17T03:47:00.861Z,5.24
2022-10-17T03:52:25.491Z,5.21
2022-10-17T03:57:50.509Z,5.21
2022-10-17T04:03:19.105Z,5.23
2022-10-17T04:08:44.215Z,5.27
2022-10-17T04:14:12.408Z,5.30
2022-10-17T04:19:43.443Z,5.32
2022-10-17T04:25:08.514Z,5.38
2022-10-17T04:30:38.007Z,5.44
2022-10-17T04:36:09.040Z,5.49
2022-10-17T04:41:33.867Z,5.68
2022-10-17T04:46:59.262Z,6.30
2022-10-17T04:52:30.824Z,7.57
2022-10-17T04:57:55.712Z,9.14
2022-10-17T05:03:21.644Z,10.82
2022-10-17T05:08:47.635Z,12.10
2022-10-17T05:14:12.718Z,12.94
2022-10-17T05:19:37.228Z,13.39
2022-10-17T05:25:08.377Z,14.06
2022-10-17T05:30:36.742Z,14.38
2022-10-17T05:36:03.904Z,15.00
2022-10-17T05:41:29.293Z,13.98
2022-10-17T05:46:53.299Z,14.49
2022-10-17T05:52:18.233Z,15.31
2022-10-17T05:58:06.721Z,15.30
2022-10-17T06:03:35.780Z,15.81
2022-10-17T06:09:03.263Z,15.91
2022-10-17T06:14:32.142Z,16.31
2022-10-17T06:20:04.242Z,17.00
2022-10-17T06:25:29.265Z,17.09
2022-10-17T06:30:54.952Z,17.39
2022-10-17T06:36:19.541Z,16.88
2022-10-17T06:41:44.972Z,16.70
2022-10-17T06:47:10.986Z,17.37
2022-10-17T06:52:35.436Z,18.39
2022-10-17T06:58:25.245Z,19.07
2022-10-17T07:04:02.039Z,19.62
2022-10-17T07:09:28.093Z,20.11
2022-10-17T07:14:56.363Z,20.45
2022-10-17T07:20:22.280Z,20.39
2022-10-17T07:25:46.721Z,20.44
2022-10-17T07:31:14.939Z,20.59
2022-10-17T07:36:40.584Z,20.98
2022-10-17T07:42:07.530Z,21.06
2022-10-17T07:47:35.664Z,21.73
2022-10-17T07:53:02.916Z,21.55
2022-10-17T07:58:28.766Z,21.35
2022-10-17T08:03:54.591Z,21.41
2022-10-17T08:09:20.722Z,21.84
2022-10-17T08:14:45.270Z,21.46
2022-10-17T08:20:12.176Z,21.98
2022-10-17T08:25:39.492Z,22.20
2022-10-17T08:31:08.270Z,22.29
2022-10-17T08:36:34.500Z,22.28
2022-10-17T08:42:18.944Z,22.70
2022-10-17T08:47:46.393Z,23.64
2022-10-17T08:53:18.573Z,21.87
2022-10-17T08:58:44.071Z,19.32
2022-10-17T09:04:45.622Z,19.91
2022-10-17T09:10:17.420Z,20.84
2022-10-17T09:16:07.559Z,22.13
2022-10-17T09:21:42.985Z,22.54
2022-10-17T09:27:19.908Z,22.76
2022-10-17T09:32:47.691Z,22.90
2022-10-17T09:38:18.877Z,22.99
2022-10-17T09:43:45.741Z,22.60
2022-10-17T09:49:17.190Z,22.38
2022-10-17T09:54:48.955Z,22.04
2022-10-17T10:00:23.233Z,21.73
2022-10-17T10:06:04.341Z,21.86
2022-10-17T10:11:51.678Z,21.87
2022-10-17T10:17:37.919Z,21.82
2022-10-17T10:23:15.063Z,22.23
2022-10-17T10:28:40.273Z,21.74
2022-10-17T10:34:17.415Z,21.79
2022-10-17T10:39:49.763Z,21.88
2022-10-17T10:45:35.609Z,21.84
2022-10-17T10:51:09.281Z,21.55
2022-10-17T10:56:39.951Z,21.42
2022-10-17T11:02:14.214Z,21.26
2022-10-17T11:07:44.695Z,21.33
2022-10-17T11:13:18.383Z,21.46
2022-10-17T11:18:49.808Z,21.27
2022-10-17T11:24:23.135Z,21.21
2022-10-17T11:29:50.487Z,21.00
2022-10-17T11:35:22.553Z,20.71
2022-10-17T11:40:52.529Z,20.62
2022-10-17T11:46:23.843Z,20.66
2022-10-17T11:52:01.178Z,20.60
2022-10-17T11:57:54.227Z,20.69
2022-10-17T12:03:32.690Z,20.51
2022-10-17T12:09:04.230Z,20.66
2022-10-17T12:14:44.345Z,20.42
2022-10-17T12:20:31.658Z,20.52
2022-10-17T12:26:03.288Z,19.87
2022-10-17T12:31:33.906Z,19.67
2022-10-17T12:37:04.762Z,19.46
2022-10-17T12:42:34.569Z,19.76
2022-10-17T12:47:59.753Z,20.04
2022-10-17T12:53:34.964Z,20.06
2022-10-17T12:59:00.897Z,19.95
2022-10-17T13:04:26.117Z,19.56
2022-10-17T13:09:53.261Z,19.32
2022-10-17T13:15:20.083Z,18.92
2022-10-17T13:20:43.950Z,19.16
2022-10-17T13:26:18.218Z,19.20
2022-10-17T13:31:44.226Z,18.94
2022-10-17T13:37:13.781Z,19.05
2022-10-17T13:42:41.623Z,18.70
2022-10-17T13:48:10.118Z,18.77
2022-10-17T13:53:41.331Z,18.40
2022-10-17T13:59:21.809Z,18.31
2022-10-17T14:05:15.732Z,17.95
2022-10-17T14:10:36.775Z,17.73
2022-10-17T14:16:05.048Z,17.38
2022-10-17T14:21:43.365Z,17.01
2022-10-17T14:27:29.553Z,16.78
2022-10-17T14:33:01.260Z,16.55
2022-10-17T14:38:27.014Z,16.12
2022-10-17T14:43:57.454Z,15.90
2022-10-17T14:49:28.900Z,15.74
2022-10-17T14:54:54.085Z,15.61
2022-10-17T15:00:24.387Z,15.23
2022-10-17T15:05:52.274Z,14.96
2022-10-17T15:11:18.399Z,14.69
2022-10-17T15:16:42.461Z,14.46
2022-10-17T15:22:07.546Z,14.10
2022-10-17T15:27:32.612Z,13.58
2022-10-17T15:32:57.115Z,12.85
2022-10-17T15:38:23.771Z,12.97
2022-10-17T15:43:48.376Z,12.81
2022-10-17T15:49:17.558Z,12.77
2022-10-17T15:54:43.764Z,12.54
2022-10-17T16:00:16.628Z,11.94
2022-10-17T16:05:40.816Z,11.61
2022-10-17T16:11:06.321Z,11.82
2022-10-17T16:16:31.021Z,11.44
2022-10-17T16:21:56.253Z,10.98
2022-10-17T16:27:24.189Z,10.87
2022-10-17T16:32:48.545Z,10.65
2022-10-17T16:38:12.532Z,10.55
2022-10-17T16:43:40.790Z,10.29
2022-10-17T16:49:06.288Z,10.13
2022-10-17T16:54:31.094Z,10.09
2022-10-17T16:59:56.337Z,10.00
2022-10-17T17:05:21.993Z,9.92
2022-10-17T17:10:51.137Z,9.91
2022-10-17T17:16:20.094Z,9.78
2022-10-17T17:21:50.105Z,9.77
2022-10-17T17:27:14.189Z,9.78
2022-10-17T17:32:40.233Z,9.76
2022-10-17T17:38:06.081Z,9.63
2022-10-17T17:43:30.903Z,9.45
2022-10-17T17:48:57.607Z,9.39
2022-10-17T17:54:22.660Z,9.25
2022-10-17T17:59:48.535Z,9.10
2022-10-17T18:05:14.396Z,9.11
2022-10-17T18:10:38.422Z,9.09
2022-10-17T18:16:12.676Z,8.77
2022-10-17T18:21:38.416Z,8.83
2022-10-17T18:27:02.754Z,8.77
2022-10-17T18:32:32.144Z,8.86
2022-10-17T18:37:58.425Z,8.90
2022-10-17T18:43:22.774Z,9.00
2022-10-17T18:48:48.455Z,8.98
2022-10-17T18:54:20.412Z,8.71
2022-10-17T18:59:45.159Z,8.66
2022-10-17T19:05:10.491Z,8.58
2022-10-17T19:10:37.756Z,8.54
2022-10-17T19:16:05.446Z,8.63
2022-10-17T19:21:29.779Z,8.60
2022-10-17T19:26:57.779Z,8.53
2022-10-17T19:32:23.091Z,8.60
2022-10-17T19:37:48.009Z,8.59
2022-10-17T19:43:17.086Z,8.62
2022-10-17T19:48:41.658Z,8.44
2022-10-17T19:54:06.062Z,8.28
2022-10-17T19:59:32.130Z,8.24
2022-10-17T20:05:13.809Z,8.25
2022-10-17T20:10:42.530Z,8.27
2022-10-17T20:16:11.662Z,8.22
2022-10-17T20:21:39.582Z,8.32
2022-10-17T20:27:03.160Z,8.38
2022-10-17T20:32:28.626Z,8.36
2022-10-17T20:37:53.978Z,8.13
2022-10-17T20:43:18.709Z,7.91
2022-10-17T20:48:44.723Z,7.94
2022-10-17T20:54:09.000Z,8.08
2022-10-17T20:59:34.394Z,8.24
2022-10-17T21:04:59.581Z,8.41
2022-10-17T21:10:34.928Z,8.58
2022-10-17T21:16:07.359Z,8.64
2022-10-17T21:21:35.539Z,8.62
2022-10-17T21:27:00.311Z,8.62
2022-10-17T21:32:47.240Z,8.16
2022-10-17T21:38:13.093Z,8.22
2022-10-17T21:43:38.711Z,8.30
2022-10-17T21:49:04.101Z,8.44
2022-10-17T21:54:29.573Z,8.56
2022-10-17T21:59:53.634Z,8.64
2022-10-17T22:05:17.963Z,8.64
2022-10-17T22:10:44.007Z,8.64
2022-10-17T22:16:10.920Z,8.62
2022-10-17T22:21:36.123Z,8.51
2022-10-17T22:27:01.608Z,8.47
2022-10-17T22:32:25.766Z,8.46
2022-10-17T22:37:50.000Z,8.42
2022-10-17T22:43:16.243Z,8.10
2022-10-17T22:48:41.142Z,7.86
2022-10-17T22:54:05.968Z,7.82
2022-10-17T22:59:32.119Z,7.90
2022-10-17T23:04:56.728Z,7.97
2022-10-17T23:10:22.930Z,8.01
2022-10-17T23:15:51.705Z,8.01
2022-10-17T23:21:16.757Z,8.09
2022-10-17T23:26:41.384Z,8.20
2022-10-17T23:32:07.570Z,8.24
2022-10-17T23:37:32.234Z,8.03
2022-10-17T23:42:57.207Z,8.06
2022-10-17T23:48:23.871Z,8.08
2022-10-17T23:53:48.614Z,7.96
2022-10-17T23:59:12.729Z,7.38
